This is the latest recevied weather packets stored in our database for station/object YM2KRB-11. If no packets are shown the sender has not sent any weather packets the latest 10 day(s).
| Time | Temp. | Humidity | Pressure | Rain* | Wind** | Luminosity | Snow |
|---|---|---|---|---|---|---|---|
| 1777469905 | 26.11° C | 25% | 942.1 hPa | - | - | - | - |
| 1777468704 | 22.78° C | 25% | 941.9 hPa | - | - | - | - |
| 1777467503 | 24.44° C | 25% | 941.9 hPa | - | - | - | - |
| 1777466302 | 24.44° C | 22% | 941.9 hPa | - | - | - | - |
| 1777465101 | 26.67° C | 19% | 942 hPa | - | - | - | - |
| 1777463901 | 24.44° C | 20% | 942.1 hPa | - | - | - | - |
| 1777462700 | 26.11° C | 20% | 942.2 hPa | - | - | - | - |
| 1777461499 | 24.44° C | 22% | 942.2 hPa | - | - | - | - |
| 1777460298 | 25.56° C | 21% | 942.3 hPa | - | - | - | - |
| 1777459097 | 25.56° C | 20% | 942.3 hPa | - | - | - | - |
| 1777457896 | 24.44° C | 20% | 942.4 hPa | - | - | - | - |
| 1777456696 | 27.78° C | 20% | 942.5 hPa | - | - | - | - |
| 1777455495 | 29.44° C | 20% | 942.8 hPa | - | - | - | - |
| 1777454294 | 25° C | 21% | 942.8 hPa | - | - | - | - |
| 1777453093 | 27.22° C | 21% | 943 hPa | - | - | - | - |
| 1777451892 | 24.44° C | 21% | 943.1 hPa | - | - | - | - |
| 1777450692 | 25° C | 22% | 943.3 hPa | - | - | - | - |
| 1777449491 | 24.44° C | 22% | 943.5 hPa | - | - | - | - |
| 1777448290 | 20.56° C | 27% | 943.5 hPa | - | - | - | - |
| 1777447089 | 17.78° C | 30% | 943.6 hPa | - | - | - | - |
| 1777445888 | 20.56° C | 29% | 943.8 hPa | - | - | - | - |
| 1777444688 | 21.11° C | 29% | 943.9 hPa | - | - | - | - |
| 1777443487 | 16.67° C | 34% | 944 hPa | - | - | - | - |
| 1777442286 | 16.67° C | 36% | 944.2 hPa | - | - | - | - |
| 1777441085 | 15.56° C | 37% | 944.2 hPa | - | - | - | - |
* Rain since midnight (hover to see other rain measurements)
** Current wind speed in m/s (hover to see current wind gust speed)